sensor_id;sensor_type;location;lat;lon;timestamp;temperature;humidity
32293;DHT22;43233;48.608;8.838;2023-07-08T00:00:14;22.40;32.10
32293;DHT22;43233;48.608;8.838;2023-07-08T00:02:41;22.40;32.20
32293;DHT22;43233;48.608;8.838;2023-07-08T00:05:11;22.30;31.20
32293;DHT22;43233;48.608;8.838;2023-07-08T00:07:38;22.30;31.40
32293;DHT22;43233;48.608;8.838;2023-07-08T00:10:22;22.20;32.20
32293;DHT22;43233;48.608;8.838;2023-07-08T00:12:50;22.20;32.30
32293;DHT22;43233;48.608;8.838;2023-07-08T00:15:17;22.20;31.70
32293;DHT22;43233;48.608;8.838;2023-07-08T00:17:43;22.20;31.60
32293;DHT22;43233;48.608;8.838;2023-07-08T00:22:43;22.20;32.70
32293;DHT22;43233;48.608;8.838;2023-07-08T00:25:13;22.20;33.50
32293;DHT22;43233;48.608;8.838;2023-07-08T00:27:39;22.20;33.10
32293;DHT22;43233;48.608;8.838;2023-07-08T00:30:17;22.10;34.70
32293;DHT22;43233;48.608;8.838;2023-07-08T00:32:44;22.10;34.30
32293;DHT22;43233;48.608;8.838;2023-07-08T00:35:09;22.00;34.30
32293;DHT22;43233;48.608;8.838;2023-07-08T00:37:35;21.90;34.60
32293;DHT22;43233;48.608;8.838;2023-07-08T00:40:01;21.90;35.00
32293;DHT22;43233;48.608;8.838;2023-07-08T00:42:29;21.80;35.10
32293;DHT22;43233;48.608;8.838;2023-07-08T00:44:55;21.70;36.10
32293;DHT22;43233;48.608;8.838;2023-07-08T00:47:22;21.60;34.70
32293;DHT22;43233;48.608;8.838;2023-07-08T00:49:56;21.40;34.60
32293;DHT22;43233;48.608;8.838;2023-07-08T00:52:26;21.40;35.30
32293;DHT22;43233;48.608;8.838;2023-07-08T00:54:53;21.30;35.30
32293;DHT22;43233;48.608;8.838;2023-07-08T00:57:21;21.10;35.80
32293;DHT22;43233;48.608;8.838;2023-07-08T00:59:55;21.10;36.40
32293;DHT22;43233;48.608;8.838;2023-07-08T01:02:24;20.90;36.40
32293;DHT22;43233;48.608;8.838;2023-07-08T01:05:02;20.80;37.20
32293;DHT22;43233;48.608;8.838;2023-07-08T01:07:30;20.70;38.30
32293;DHT22;43233;48.608;8.838;2023-07-08T01:10:02;20.60;38.00
32293;DHT22;43233;48.608;8.838;2023-07-08T01:12:38;20.40;38.60
32293;DHT22;43233;48.608;8.838;2023-07-08T01:15:07;20.30;39.20
32293;DHT22;43233;48.608;8.838;2023-07-08T01:17:33;20.30;39.10
32293;DHT22;43233;48.608;8.838;2023-07-08T01:20:05;20.20;39.10
32293;DHT22;43233;48.608;8.838;2023-07-08T01:22:39;20.10;38.90
32293;DHT22;43233;48.608;8.838;2023-07-08T01:25:06;20.10;40.00
32293;DHT22;43233;48.608;8.838;2023-07-08T01:27:35;20.00;40.30
32293;DHT22;43233;48.608;8.838;2023-07-08T01:30:02;20.00;40.70
32293;DHT22;43233;48.608;8.838;2023-07-08T01:32:28;19.90;41.10
32293;DHT22;43233;48.608;8.838;2023-07-08T01:35:00;19.80;40.60
32293;DHT22;43233;48.608;8.838;2023-07-08T01:38:00;19.70;41.10
32293;DHT22;43233;48.608;8.838;2023-07-08T01:40:31;19.60;41.20
32293;DHT22;43233;48.608;8.838;2023-07-08T01:42:58;19.60;41.30
32293;DHT22;43233;48.608;8.838;2023-07-08T01:45:27;19.50;41.10
32293;DHT22;43233;48.608;8.838;2023-07-08T01:48:03;19.50;41.40
32293;DHT22;43233;48.608;8.838;2023-07-08T01:50:29;19.40;41.50
32293;DHT22;43233;48.608;8.838;2023-07-08T01:52:59;19.30;42.60
32293;DHT22;43233;48.608;8.838;2023-07-08T01:55:26;19.20;42.50
32293;DHT22;43233;48.608;8.838;2023-07-08T01:57:54;19.20;42.30
32293;DHT22;43233;48.608;8.838;2023-07-08T02:00:21;19.10;43.30
32293;DHT22;43233;48.608;8.838;2023-07-08T02:02:48;19.10;43.50
32293;DHT22;43233;48.608;8.838;2023-07-08T02:05:13;19.10;42.80
32293;DHT22;43233;48.608;8.838;2023-07-08T02:07:39;19.00;42.90
32293;DHT22;43233;48.608;8.838;2023-07-08T02:10:06;19.00;42.60
32293;DHT22;43233;48.608;8.838;2023-07-08T02:12:31;19.10;43.10
32293;DHT22;43233;48.608;8.838;2023-07-08T02:15:00;19.10;43.60
32293;DHT22;43233;48.608;8.838;2023-07-08T02:17:26;19.10;43.80
32293;DHT22;43233;48.608;8.838;2023-07-08T02:19:54;19.10;43.90
32293;DHT22;43233;48.608;8.838;2023-07-08T02:22:20;19.20;44.00
32293;DHT22;43233;48.608;8.838;2023-07-08T02:24:45;19.20;43.80
32293;DHT22;43233;48.608;8.838;2023-07-08T02:27:11;19.20;43.30
32293;DHT22;43233;48.608;8.838;2023-07-08T02:29:37;19.30;43.20
32293;DHT22;43233;48.608;8.838;2023-07-08T02:32:04;19.40;43.70
32293;DHT22;43233;48.608;8.838;2023-07-08T02:34:29;19.40;43.20
32293;DHT22;43233;48.608;8.838;2023-07-08T02:36:55;19.40;42.80
32293;DHT22;43233;48.608;8.838;2023-07-08T02:39:22;19.50;43.50
32293;DHT22;43233;48.608;8.838;2023-07-08T02:41:48;19.50;43.10
32293;DHT22;43233;48.608;8.838;2023-07-08T02:44:14;19.50;44.20
32293;DHT22;43233;48.608;8.838;2023-07-08T02:46:39;19.50;43.80
32293;DHT22;43233;48.608;8.838;2023-07-08T02:49:05;19.50;45.40
32293;DHT22;43233;48.608;8.838;2023-07-08T02:51:31;19.40;46.30
32293;DHT22;43233;48.608;8.838;2023-07-08T02:53:57;19.50;44.80
32293;DHT22;43233;48.608;8.838;2023-07-08T02:56:22;19.40;45.50
32293;DHT22;43233;48.608;8.838;2023-07-08T02:58:49;19.40;44.80
32293;DHT22;43233;48.608;8.838;2023-07-08T03:01:15;19.30;45.20
32293;DHT22;43233;48.608;8.838;2023-07-08T03:03:45;19.20;45.50
32293;DHT22;43233;48.608;8.838;2023-07-08T03:06:10;19.10;46.80
32293;DHT22;43233;48.608;8.838;2023-07-08T03:08:36;19.00;47.30
32293;DHT22;43233;48.608;8.838;2023-07-08T03:11:03;18.90;44.50
32293;DHT22;43233;48.608;8.838;2023-07-08T03:13:30;18.80;46.00
32293;DHT22;43233;48.608;8.838;2023-07-08T03:15:57;18.80;46.50
32293;DHT22;43233;48.608;8.838;2023-07-08T03:18:24;18.80;46.40
32293;DHT22;43233;48.608;8.838;2023-07-08T03:20:55;18.70;46.80
32293;DHT22;43233;48.608;8.838;2023-07-08T03:23:22;18.70;47.30
32293;DHT22;43233;48.608;8.838;2023-07-08T03:25:47;18.70;48.60
32293;DHT22;43233;48.608;8.838;2023-07-08T03:28:13;18.60;48.70
32293;DHT22;43233;48.608;8.838;2023-07-08T03:30:43;18.60;49.00
32293;DHT22;43233;48.608;8.838;2023-07-08T03:33:11;18.50;49.50
32293;DHT22;43233;48.608;8.838;2023-07-08T03:35:37;18.50;49.50
32293;DHT22;43233;48.608;8.838;2023-07-08T03:38:04;18.50;49.90
32293;DHT22;43233;48.608;8.838;2023-07-08T03:40:30;18.50;50.10
32293;DHT22;43233;48.608;8.838;2023-07-08T03:42:56;18.50;51.10
32293;DHT22;43233;48.608;8.838;2023-07-08T03:45:22;18.40;48.70
32293;DHT22;43233;48.608;8.838;2023-07-08T03:47:48;18.40;48.80
32293;DHT22;43233;48.608;8.838;2023-07-08T03:50:22;18.30;49.10
32293;DHT22;43233;48.608;8.838;2023-07-08T03:52:49;18.40;49.40
32293;DHT22;43233;48.608;8.838;2023-07-08T03:55:16;18.30;50.00
32293;DHT22;43233;48.608;8.838;2023-07-08T03:57:41;18.30;51.20
32293;DHT22;43233;48.608;8.838;2023-07-08T04:00:08;18.20;51.50
32293;DHT22;43233;48.608;8.838;2023-07-08T04:02:41;18.20;50.80
32293;DHT22;43233;48.608;8.838;2023-07-08T04:05:10;18.20;50.50
32293;DHT22;43233;48.608;8.838;2023-07-08T04:07:38;18.20;50.60
32293;DHT22;43233;48.608;8.838;2023-07-08T04:10:03;18.20;52.80
32293;DHT22;43233;48.608;8.838;2023-07-08T04:12:29;18.20;52.40
32293;DHT22;43233;48.608;8.838;2023-07-08T04:14:55;18.30;52.70
32293;DHT22;43233;48.608;8.838;2023-07-08T04:17:20;18.30;51.60
32293;DHT22;43233;48.608;8.838;2023-07-08T04:19:49;18.40;51.30
32293;DHT22;43233;48.608;8.838;2023-07-08T04:22:14;18.50;52.50
32293;DHT22;43233;48.608;8.838;2023-07-08T04:24:40;18.40;53.30
32293;DHT22;43233;48.608;8.838;2023-07-08T04:27:07;18.50;54.60
32293;DHT22;43233;48.608;8.838;2023-07-08T04:29:34;18.60;55.00
32293;DHT22;43233;48.608;8.838;2023-07-08T04:32:00;18.60;53.40
32293;DHT22;43233;48.608;8.838;2023-07-08T04:34:26;18.70;52.80
32293;DHT22;43233;48.608;8.838;2023-07-08T04:36:51;18.80;52.10
32293;DHT22;43233;48.608;8.838;2023-07-08T04:39:18;18.90;51.80
32293;DHT22;43233;48.608;8.838;2023-07-08T04:41:43;19.00;50.90
32293;DHT22;43233;48.608;8.838;2023-07-08T04:44:10;19.10;52.30
32293;DHT22;43233;48.608;8.838;2023-07-08T04:46:42;19.20;53.60
32293;DHT22;43233;48.608;8.838;2023-07-08T04:49:10;19.30;53.00
32293;DHT22;43233;48.608;8.838;2023-07-08T04:51:37;19.30;50.00
32293;DHT22;43233;48.608;8.838;2023-07-08T04:54:03;19.40;49.90
32293;DHT22;43233;48.608;8.838;2023-07-08T04:56:41;19.40;50.40
32293;DHT22;43233;48.608;8.838;2023-07-08T04:59:13;19.50;51.10
32293;DHT22;43233;48.608;8.838;2023-07-08T05:01:39;19.60;51.20
32293;DHT22;43233;48.608;8.838;2023-07-08T05:04:05;19.60;51.90
32293;DHT22;43233;48.608;8.838;2023-07-08T05:06:32;19.70;52.70
32293;DHT22;43233;48.608;8.838;2023-07-08T05:08:59;19.70;52.60
32293;DHT22;43233;48.608;8.838;2023-07-08T05:11:25;19.80;51.80
32293;DHT22;43233;48.608;8.838;2023-07-08T05:13:51;19.80;48.70
32293;DHT22;43233;48.608;8.838;2023-07-08T05:16:17;19.80;48.40
32293;DHT22;43233;48.608;8.838;2023-07-08T05:18:43;19.80;49.20
32293;DHT22;43233;48.608;8.838;2023-07-08T05:21:09;19.80;48.00
32293;DHT22;43233;48.608;8.838;2023-07-08T05:23:35;19.80;48.40
32293;DHT22;43233;48.608;8.838;2023-07-08T05:26:02;19.80;49.40
32293;DHT22;43233;48.608;8.838;2023-07-08T05:28:28;19.80;50.40
32293;DHT22;43233;48.608;8.838;2023-07-08T05:30:55;19.80;51.20
32293;DHT22;43233;48.608;8.838;2023-07-08T05:33:22;19.90;52.40
32293;DHT22;43233;48.608;8.838;2023-07-08T05:35:48;19.90;52.90
32293;DHT22;43233;48.608;8.838;2023-07-08T05:38:13;19.90;54.70
32293;DHT22;43233;48.608;8.838;2023-07-08T05:40:39;19.90;54.40
32293;DHT22;43233;48.608;8.838;2023-07-08T05:43:06;20.00;53.80
32293;DHT22;43233;48.608;8.838;2023-07-08T05:45:31;19.90;54.80
32293;DHT22;43233;48.608;8.838;2023-07-08T05:47:57;19.90;52.40
32293;DHT22;43233;48.608;8.838;2023-07-08T05:50:23;19.90;52.00
32293;DHT22;43233;48.608;8.838;2023-07-08T05:52:48;19.90;53.40
32293;DHT22;43233;48.608;8.838;2023-07-08T05:55:14;19.90;51.70
32293;DHT22;43233;48.608;8.838;2023-07-08T05:57:40;20.00;52.00
32293;DHT22;43233;48.608;8.838;2023-07-08T06:00:06;20.00;52.80
32293;DHT22;43233;48.608;8.838;2023-07-08T06:02:32;20.10;52.20
32293;DHT22;43233;48.608;8.838;2023-07-08T06:04:57;20.20;52.50
32293;DHT22;43233;48.608;8.838;2023-07-08T06:07:23;20.20;52.60
32293;DHT22;43233;48.608;8.838;2023-07-08T06:09:48;20.30;54.70
32293;DHT22;43233;48.608;8.838;2023-07-08T06:12:14;20.40;53.60
32293;DHT22;43233;48.608;8.838;2023-07-08T06:14:40;20.40;53.90
32293;DHT22;43233;48.608;8.838;2023-07-08T06:17:06;20.50;53.90
32293;DHT22;43233;48.608;8.838;2023-07-08T06:19:32;20.50;54.70
32293;DHT22;43233;48.608;8.838;2023-07-08T06:21:58;20.60;55.10
32293;DHT22;43233;48.608;8.838;2023-07-08T06:24:24;20.50;54.70
32293;DHT22;43233;48.608;8.838;2023-07-08T06:26:49;20.50;54.30
32293;DHT22;43233;48.608;8.838;2023-07-08T06:29:15;20.50;51.60
32293;DHT22;43233;48.608;8.838;2023-07-08T06:31:41;20.40;51.70
32293;DHT22;43233;48.608;8.838;2023-07-08T06:34:07;20.50;52.60
32293;DHT22;43233;48.608;8.838;2023-07-08T06:36:33;20.40;52.40
32293;DHT22;43233;48.608;8.838;2023-07-08T06:38:58;20.40;54.00
32293;DHT22;43233;48.608;8.838;2023-07-08T06:41:24;20.40;53.20
32293;DHT22;43233;48.608;8.838;2023-07-08T06:43:50;20.30;53.20
32293;DHT22;43233;48.608;8.838;2023-07-08T06:46:16;20.40;53.80
32293;DHT22;43233;48.608;8.838;2023-07-08T06:48:42;20.40;53.70
32293;DHT22;43233;48.608;8.838;2023-07-08T06:51:07;20.30;56.10
32293;DHT22;43233;48.608;8.838;2023-07-08T06:53:33;20.30;56.30
32293;DHT22;43233;48.608;8.838;2023-07-08T06:55:58;20.30;56.50
32293;DHT22;43233;48.608;8.838;2023-07-08T06:58:24;20.30;57.90
32293;DHT22;43233;48.608;8.838;2023-07-08T07:00:50;20.30;57.80
32293;DHT22;43233;48.608;8.838;2023-07-08T07:03:15;20.30;59.70
32293;DHT22;43233;48.608;8.838;2023-07-08T07:05:43;20.40;56.40
32293;DHT22;43233;48.608;8.838;2023-07-08T07:08:08;20.40;55.90
32293;DHT22;43233;48.608;8.838;2023-07-08T07:10:34;20.50;55.30
32293;DHT22;43233;48.608;8.838;2023-07-08T07:13:00;20.60;54.70
32293;DHT22;43233;48.608;8.838;2023-07-08T07:15:25;20.70;53.80
32293;DHT22;43233;48.608;8.838;2023-07-08T07:17:51;20.80;54.50
32293;DHT22;43233;48.608;8.838;2023-07-08T07:20:17;20.90;54.60
32293;DHT22;43233;48.608;8.838;2023-07-08T07:22:42;21.00;52.40
32293;DHT22;43233;48.608;8.838;2023-07-08T07:25:08;21.10;52.00
32293;DHT22;43233;48.608;8.838;2023-07-08T07:27:34;21.20;52.90
32293;DHT22;43233;48.608;8.838;2023-07-08T07:30:00;21.30;52.30
32293;DHT22;43233;48.608;8.838;2023-07-08T07:32:26;21.40;52.20
32293;DHT22;43233;48.608;8.838;2023-07-08T07:34:52;21.50;52.50
32293;DHT22;43233;48.608;8.838;2023-07-08T07:37:20;21.50;53.00
32293;DHT22;43233;48.608;8.838;2023-07-08T07:39:46;21.60;52.80
32293;DHT22;43233;48.608;8.838;2023-07-08T07:42:13;21.60;53.60
32293;DHT22;43233;48.608;8.838;2023-07-08T07:44:39;21.70;55.00
32293;DHT22;43233;48.608;8.838;2023-07-08T07:47:06;21.70;54.20
32293;DHT22;43233;48.608;8.838;2023-07-08T07:49:32;21.80;53.30
32293;DHT22;43233;48.608;8.838;2023-07-08T07:51:58;21.90;52.30
32293;DHT22;43233;48.608;8.838;2023-07-08T07:54:24;21.90;50.50
32293;DHT22;43233;48.608;8.838;2023-07-08T07:56:50;21.90;51.30
32293;DHT22;43233;48.608;8.838;2023-07-08T07:59:16;21.90;52.10
32293;DHT22;43233;48.608;8.838;2023-07-08T08:01:41;21.90;52.40
32293;DHT22;43233;48.608;8.838;2023-07-08T08:04:09;22.00;52.40
32293;DHT22;43233;48.608;8.838;2023-07-08T08:06:34;22.00;54.60
32293;DHT22;43233;48.608;8.838;2023-07-08T08:09:00;22.10;53.00
32293;DHT22;43233;48.608;8.838;2023-07-08T08:11:26;22.10;51.70
32293;DHT22;43233;48.608;8.838;2023-07-08T08:13:52;22.10;52.60
32293;DHT22;43233;48.608;8.838;2023-07-08T08:16:19;22.20;52.70
32293;DHT22;43233;48.608;8.838;2023-07-08T08:18:45;22.20;51.60
32293;DHT22;43233;48.608;8.838;2023-07-08T08:21:11;22.30;54.20
32293;DHT22;43233;48.608;8.838;2023-07-08T08:23:36;22.40;51.70
32293;DHT22;43233;48.608;8.838;2023-07-08T08:26:02;22.60;53.30
32293;DHT22;43233;48.608;8.838;2023-07-08T08:28:28;22.80;50.70
32293;DHT22;43233;48.608;8.838;2023-07-08T08:30:53;22.90;50.20
32293;DHT22;43233;48.608;8.838;2023-07-08T08:33:20;23.10;49.50
32293;DHT22;43233;48.608;8.838;2023-07-08T08:35:46;23.30;49.10
32293;DHT22;43233;48.608;8.838;2023-07-08T08:38:12;23.40;48.30
32293;DHT22;43233;48.608;8.838;2023-07-08T08:40:40;23.50;49.00
32293;DHT22;43233;48.608;8.838;2023-07-08T08:46:56;23.70;48.20
32293;DHT22;43233;48.608;8.838;2023-07-08T08:52:00;23.90;49.50
32293;DHT22;43233;48.608;8.838;2023-07-08T08:54:26;23.90;46.50
32293;DHT22;43233;48.608;8.838;2023-07-08T08:59:42;24.10;46.80
32293;DHT22;43233;48.608;8.838;2023-07-08T09:02:36;24.20;46.50
32293;DHT22;43233;48.608;8.838;2023-07-08T09:05:08;24.30;47.30
32293;DHT22;43233;48.608;8.838;2023-07-08T09:08:05;24.50;44.70
32293;DHT22;43233;48.608;8.838;2023-07-08T09:11:18;24.60;46.50
32293;DHT22;43233;48.608;8.838;2023-07-08T09:13:45;24.70;47.20
32293;DHT22;43233;48.608;8.838;2023-07-08T09:19:13;25.00;43.60
32293;DHT22;43233;48.608;8.838;2023-07-08T09:22:08;25.10;43.20
32293;DHT22;43233;48.608;8.838;2023-07-08T09:24:43;25.20;43.40
32293;DHT22;43233;48.608;8.838;2023-07-08T09:27:09;25.40;39.10
32293;DHT22;43233;48.608;8.838;2023-07-08T09:29:35;25.60;38.00
32293;DHT22;43233;48.608;8.838;2023-07-08T09:32:17;25.70;38.00
32293;DHT22;43233;48.608;8.838;2023-07-08T09:34:55;25.80;39.90
32293;DHT22;43233;48.608;8.838;2023-07-08T09:37:31;25.90;41.30
32293;DHT22;43233;48.608;8.838;2023-07-08T09:39:59;26.10;37.70
32293;DHT22;43233;48.608;8.838;2023-07-08T09:42:34;26.30;37.30
32293;DHT22;43233;48.608;8.838;2023-07-08T09:45:08;26.40;34.90
32293;DHT22;43233;48.608;8.838;2023-07-08T09:47:37;26.50;34.00
32293;DHT22;43233;48.608;8.838;2023-07-08T09:50:26;26.50;33.70
32293;DHT22;43233;48.608;8.838;2023-07-08T09:52:55;26.60;33.80
32293;DHT22;43233;48.608;8.838;2023-07-08T09:55:23;26.70;34.60
32293;DHT22;43233;48.608;8.838;2023-07-08T09:57:51;26.80;34.90
32293;DHT22;43233;48.608;8.838;2023-07-08T10:00:30;27.00;35.30
32293;DHT22;43233;48.608;8.838;2023-07-08T10:03:11;27.00;36.30
32293;DHT22;43233;48.608;8.838;2023-07-08T10:05:40;27.00;36.20
32293;DHT22;43233;48.608;8.838;2023-07-08T10:08:22;27.00;33.70
32293;DHT22;43233;48.608;8.838;2023-07-08T10:10:57;27.20;31.40
32293;DHT22;43233;48.608;8.838;2023-07-08T10:13:37;27.30;30.60
32293;DHT22;43233;48.608;8.838;2023-07-08T10:18:44;27.50;30.70
32293;DHT22;43233;48.608;8.838;2023-07-08T10:21:20;27.60;29.10
32293;DHT22;43233;48.608;8.838;2023-07-08T10:35:16;27.80;28.60
32293;DHT22;43233;48.608;8.838;2023-07-08T10:40:48;28.00;27.40
32293;DHT22;43233;48.608;8.838;2023-07-08T10:43:39;28.10;27.40
32293;DHT22;43233;48.608;8.838;2023-07-08T11:00:23;28.20;25.90
32293;DHT22;43233;48.608;8.838;2023-07-08T11:05:31;28.40;27.00
32293;DHT22;43233;48.608;8.838;2023-07-08T11:08:21;28.60;25.40
32293;DHT22;43233;48.608;8.838;2023-07-08T11:11:00;28.60;26.00
32293;DHT22;43233;48.608;8.838;2023-07-08T11:13:28;28.60;26.10
32293;DHT22;43233;48.608;8.838;2023-07-08T11:16:10;28.70;25.60
32293;DHT22;43233;48.608;8.838;2023-07-08T11:19:06;28.80;26.20
32293;DHT22;43233;48.608;8.838;2023-07-08T11:21:41;28.80;25.10
32293;DHT22;43233;48.608;8.838;2023-07-08T11:26:45;29.30;24.40
32293;DHT22;43233;48.608;8.838;2023-07-08T11:29:20;29.50;25.70
32293;DHT22;43233;48.608;8.838;2023-07-08T11:31:47;29.70;25.80
32293;DHT22;43233;48.608;8.838;2023-07-08T11:34:15;30.00;25.90
32293;DHT22;43233;48.608;8.838;2023-07-08T11:36:42;30.20;24.00
32293;DHT22;43233;48.608;8.838;2023-07-08T11:39:28;30.20;23.80
32293;DHT22;43233;48.608;8.838;2023-07-08T11:42:05;30.30;23.70
32293;DHT22;43233;48.608;8.838;2023-07-08T11:44:44;30.40;23.60
32293;DHT22;43233;48.608;8.838;2023-07-08T11:49:48;30.60;26.70
32293;DHT22;43233;48.608;8.838;2023-07-08T11:52:18;30.70;32.50
32293;DHT22;43233;48.608;8.838;2023-07-08T11:54:48;30.90;26.40
32293;DHT22;43233;48.608;8.838;2023-07-08T11:57:35;30.80;27.70
32293;DHT22;43233;48.608;8.838;2023-07-08T12:00:15;30.80;25.00
32293;DHT22;43233;48.608;8.838;2023-07-08T12:03:20;30.90;23.20
32293;DHT22;43233;48.608;8.838;2023-07-08T12:05:47;30.80;23.00
32293;DHT22;43233;48.608;8.838;2023-07-08T12:08:15;30.90;23.70
32293;DHT22;43233;48.608;8.838;2023-07-08T12:10:52;31.00;25.10
32293;DHT22;43233;48.608;8.838;2023-07-08T12:13:23;31.10;27.60
32293;DHT22;43233;48.608;8.838;2023-07-08T12:15:49;31.30;26.60
32293;DHT22;43233;48.608;8.838;2023-07-08T12:20:43;31.30;25.80
32293;DHT22;43233;48.608;8.838;2023-07-08T12:23:21;31.50;27.60
32293;DHT22;43233;48.608;8.838;2023-07-08T12:25:47;31.60;23.30
32293;DHT22;43233;48.608;8.838;2023-07-08T12:28:14;31.60;22.90
32293;DHT22;43233;48.608;8.838;2023-07-08T12:30:41;31.60;22.30
32293;DHT22;43233;48.608;8.838;2023-07-08T12:33:28;31.60;22.30
32293;DHT22;43233;48.608;8.838;2023-07-08T12:35:55;31.50;21.10
32293;DHT22;43233;48.608;8.838;2023-07-08T12:38:35;31.50;21.30
32293;DHT22;43233;48.608;8.838;2023-07-08T12:41:08;31.60;20.80
32293;DHT22;43233;48.608;8.838;2023-07-08T12:43:34;31.70;21.50
32293;DHT22;43233;48.608;8.838;2023-07-08T12:46:00;31.60;19.70
32293;DHT22;43233;48.608;8.838;2023-07-08T12:48:31;31.50;19.40
32293;DHT22;43233;48.608;8.838;2023-07-08T12:50:57;31.40;19.50
32293;DHT22;43233;48.608;8.838;2023-07-08T12:53:23;31.50;19.50
32293;DHT22;43233;48.608;8.838;2023-07-08T12:55:51;31.80;18.60
32293;DHT22;43233;48.608;8.838;2023-07-08T12:58:24;31.90;19.10
32293;DHT22;43233;48.608;8.838;2023-07-08T13:00:51;32.20;19.30
32293;DHT22;43233;48.608;8.838;2023-07-08T13:03:21;32.40;19.50
32293;DHT22;43233;48.608;8.838;2023-07-08T13:05:49;32.60;18.40
32293;DHT22;43233;48.608;8.838;2023-07-08T13:08:18;32.80;17.70
32293;DHT22;43233;48.608;8.838;2023-07-08T13:10:44;32.80;17.30
32293;DHT22;43233;48.608;8.838;2023-07-08T13:13:38;32.80;18.00
32293;DHT22;43233;48.608;8.838;2023-07-08T13:16:04;33.00;18.20
32293;DHT22;43233;48.608;8.838;2023-07-08T13:18:36;33.20;18.60
32293;DHT22;43233;48.608;8.838;2023-07-08T13:21:04;33.50;15.90
32293;DHT22;43233;48.608;8.838;2023-07-08T13:23:31;33.50;15.60
32293;DHT22;43233;48.608;8.838;2023-07-08T13:25:57;33.40;16.50
32293;DHT22;43233;48.608;8.838;2023-07-08T13:28:43;33.40;16.20
32293;DHT22;43233;48.608;8.838;2023-07-08T13:31:15;33.50;15.90
32293;DHT22;43233;48.608;8.838;2023-07-08T13:33:50;33.50;16.20
32293;DHT22;43233;48.608;8.838;2023-07-08T13:36:32;33.30;16.30
32293;DHT22;43233;48.608;8.838;2023-07-08T13:39:01;33.20;16.40
32293;DHT22;43233;48.608;8.838;2023-07-08T13:41:27;33.20;16.70
32293;DHT22;43233;48.608;8.838;2023-07-08T13:43:52;33.20;16.40
32293;DHT22;43233;48.608;8.838;2023-07-08T13:46:35;33.10;17.10
32293;DHT22;43233;48.608;8.838;2023-07-08T13:54:44;33.00;16.70
32293;DHT22;43233;48.608;8.838;2023-07-08T13:57:15;33.10;16.60
32293;DHT22;43233;48.608;8.838;2023-07-08T13:59:41;33.10;16.80
32293;DHT22;43233;48.608;8.838;2023-07-08T14:02:19;33.10;16.80
32293;DHT22;43233;48.608;8.838;2023-07-08T14:04:46;33.20;17.40
32293;DHT22;43233;48.608;8.838;2023-07-08T14:07:23;33.30;17.50
32293;DHT22;43233;48.608;8.838;2023-07-08T14:09:49;33.60;17.90
32293;DHT22;43233;48.608;8.838;2023-07-08T14:12:14;33.80;17.20
32293;DHT22;43233;48.608;8.838;2023-07-08T14:14:41;33.70;15.70
32293;DHT22;43233;48.608;8.838;2023-07-08T14:17:11;33.70;15.30
32293;DHT22;43233;48.608;8.838;2023-07-08T14:19:38;33.60;15.60
32293;DHT22;43233;48.608;8.838;2023-07-08T14:24:32;33.50;16.60
32293;DHT22;43233;48.608;8.838;2023-07-08T14:26:57;33.60;15.80
32293;DHT22;43233;48.608;8.838;2023-07-08T14:29:24;33.50;16.10
32293;DHT22;43233;48.608;8.838;2023-07-08T14:31:50;33.50;15.90
32293;DHT22;43233;48.608;8.838;2023-07-08T14:34:21;33.30;16.60
32293;DHT22;43233;48.608;8.838;2023-07-08T14:36:47;33.30;19.10
32293;DHT22;43233;48.608;8.838;2023-07-08T14:39:15;33.30;18.90
32293;DHT22;43233;48.608;8.838;2023-07-08T14:41:42;33.30;19.40
32293;DHT22;43233;48.608;8.838;2023-07-08T14:44:26;33.40;22.10
32293;DHT22;43233;48.608;8.838;2023-07-08T14:46:56;33.50;17.70
32293;DHT22;43233;48.608;8.838;2023-07-08T14:49:23;33.60;21.10
32293;DHT22;43233;48.608;8.838;2023-07-08T14:51:49;33.60;22.70
32293;DHT22;43233;48.608;8.838;2023-07-08T14:54:16;33.60;20.90
32293;DHT22;43233;48.608;8.838;2023-07-08T14:56:42;33.50;24.00
32293;DHT22;43233;48.608;8.838;2023-07-08T14:59:17;33.50;21.90
32293;DHT22;43233;48.608;8.838;2023-07-08T15:01:44;33.50;20.80
32293;DHT22;43233;48.608;8.838;2023-07-08T15:04:15;33.50;18.40
32293;DHT22;43233;48.608;8.838;2023-07-08T15:06:42;33.50;19.40
32293;DHT22;43233;48.608;8.838;2023-07-08T15:09:08;33.40;20.70
32293;DHT22;43233;48.608;8.838;2023-07-08T15:11:34;33.20;20.60
32293;DHT22;43233;48.608;8.838;2023-07-08T15:14:01;33.20;22.00
32293;DHT22;43233;48.608;8.838;2023-07-08T15:16:27;33.30;21.70
32293;DHT22;43233;48.608;8.838;2023-07-08T15:18:53;33.20;22.90
32293;DHT22;43233;48.608;8.838;2023-07-08T15:21:19;33.00;22.40
32293;DHT22;43233;48.608;8.838;2023-07-08T15:23:44;32.90;22.40
32293;DHT22;43233;48.608;8.838;2023-07-08T15:26:13;32.80;21.90
32293;DHT22;43233;48.608;8.838;2023-07-08T15:28:43;32.80;23.30
32293;DHT22;43233;48.608;8.838;2023-07-08T15:31:14;32.80;25.20
32293;DHT22;43233;48.608;8.838;2023-07-08T15:33:41;32.70;26.70
32293;DHT22;43233;48.608;8.838;2023-07-08T15:36:09;32.70;21.80
32293;DHT22;43233;48.608;8.838;2023-07-08T15:38:35;32.70;21.90
32293;DHT22;43233;48.608;8.838;2023-07-08T15:41:00;32.60;21.20
32293;DHT22;43233;48.608;8.838;2023-07-08T15:43:26;32.50;22.10
32293;DHT22;43233;48.608;8.838;2023-07-08T15:45:52;32.50;23.70
32293;DHT22;43233;48.608;8.838;2023-07-08T15:48:18;32.60;23.30
32293;DHT22;43233;48.608;8.838;2023-07-08T15:50:44;32.60;22.80
32293;DHT22;43233;48.608;8.838;2023-07-08T15:53:10;32.70;23.10
32293;DHT22;43233;48.608;8.838;2023-07-08T15:55:42;32.50;24.00
32293;DHT22;43233;48.608;8.838;2023-07-08T15:58:34;32.20;24.70
32293;DHT22;43233;48.608;8.838;2023-07-08T16:01:01;31.90;25.80
32293;DHT22;43233;48.608;8.838;2023-07-08T16:03:32;31.90;26.90
32293;DHT22;43233;48.608;8.838;2023-07-08T16:06:00;31.90;26.70
32293;DHT22;43233;48.608;8.838;2023-07-08T16:08:26;31.80;23.10
32293;DHT22;43233;48.608;8.838;2023-07-08T16:10:56;31.90;24.20
32293;DHT22;43233;48.608;8.838;2023-07-08T16:13:27;31.90;27.40
32293;DHT22;43233;48.608;8.838;2023-07-08T16:15:56;32.00;28.60
32293;DHT22;43233;48.608;8.838;2023-07-08T16:18:25;32.10;24.70
32293;DHT22;43233;48.608;8.838;2023-07-08T16:20:51;32.30;24.60
32293;DHT22;43233;48.608;8.838;2023-07-08T16:23:17;32.40;23.20
32293;DHT22;43233;48.608;8.838;2023-07-08T16:25:44;32.40;24.70
32293;DHT22;43233;48.608;8.838;2023-07-08T16:28:33;32.40;23.90
32293;DHT22;43233;48.608;8.838;2023-07-08T16:31:00;32.40;18.10
32293;DHT22;43233;48.608;8.838;2023-07-08T16:33:26;32.40;17.90
32293;DHT22;43233;48.608;8.838;2023-07-08T16:35:51;32.30;17.80
32293;DHT22;43233;48.608;8.838;2023-07-08T16:38:17;32.10;18.40
32293;DHT22;43233;48.608;8.838;2023-07-08T16:40:43;31.90;18.90
32293;DHT22;43233;48.608;8.838;2023-07-08T16:43:25;31.80;18.40
32293;DHT22;43233;48.608;8.838;2023-07-08T16:45:51;31.70;19.10